Time;durP1;ratioP1;P1;durP2;ratioP2;P2;SDS_P1;SDS_P2;PMS_P1;PMS_P2;Temp;Humidity;BMP_temperature;BMP_pressure;BME280_temperature;BME280_humidity;BME280_pressure;Samples;Min_cycle;Max_cycle;Signal;HPM_P1;HPM_P2
2023/09/28 00:01:00;;;;;;;;;;;17.40;82.50;;;;;;5066950;28;19995;-78
2023/09/28 00:03:27;;;;;;;;;;;17.40;82.60;;;;;;5067308;28;20161;-78
2023/09/28 00:05:54;;;;;;;;;;;17.40;82.70;;;;;;5064682;28;20007;-78
2023/09/28 00:08:19;;;;;;;;;;;17.30;82.60;;;;;;5063710;28;20125;-78
2023/09/28 00:10:46;;;;;;;;;;;17.40;82.80;;;;;;5067290;28;19972;-77
2023/09/28 00:13:12;;;;;;;;;;;17.30;82.70;;;;;;5064497;28;20093;-77
2023/09/28 00:15:38;;;;;;;;;;;17.30;82.70;;;;;;5061298;28;20074;-79
2023/09/28 00:18:04;;;;;;;;;;;17.30;82.70;;;;;;5065322;28;19986;-78
2023/09/28 00:20:32;;;;;;;;;;;17.30;82.80;;;;;;5062861;28;20343;-77
2023/09/28 00:22:57;;;;;;;;;;;17.30;82.90;;;;;;5064067;28;19995;-77
2023/09/28 00:25:24;;;;;;;;;;;17.20;82.80;;;;;;5066366;28;19998;-77
2023/09/28 00:27:51;;;;;;;;;;;17.20;82.90;;;;;;5063638;28;20032;-77
2023/09/28 00:30:19;;;;;;;;;;;17.20;83.00;;;;;;5061103;28;20097;-76
2023/09/28 00:32:45;;;;;;;;;;;17.20;83.20;;;;;;5066832;28;20003;-78
2023/09/28 00:35:12;;;;;;;;;;;17.20;83.20;;;;;;5064455;28;20358;-75
2023/09/28 00:37:40;;;;;;;;;;;17.20;83.30;;;;;;5062215;28;20003;-77
2023/09/28 00:40:15;;;;;;;;;;;17.10;83.40;;;;;;5062669;28;19991;-79
2023/09/28 00:42:41;;;;;;;;;;;17.10;83.50;;;;;;5063493;28;20002;-78
2023/09/28 00:45:08;;;;;;;;;;;17.10;83.40;;;;;;5061153;28;19975;-77
2023/09/28 00:47:34;;;;;;;;;;;17.10;83.60;;;;;;5065360;28;20370;-77
2023/09/28 00:50:03;;;;;;;;;;;17.10;83.70;;;;;;5062065;28;20445;-76
2023/09/28 00:52:29;;;;;;;;;;;17.10;83.70;;;;;;5063889;28;20090;-78
2023/09/28 00:54:58;;;;;;;;;;;17.00;83.70;;;;;;5061393;28;20083;-78
2023/09/28 00:57:24;;;;;;;;;;;17.00;83.80;;;;;;5059666;28;19979;-77
2023/09/28 00:59:54;;;;;;;;;;;17.00;83.80;;;;;;5062938;28;21540;-78
2023/09/28 01:02:20;;;;;;;;;;;17.00;83.90;;;;;;5062589;28;20035;-76
2023/09/28 01:04:48;;;;;;;;;;;17.00;83.90;;;;;;5064876;28;20228;-78
2023/09/28 01:07:24;;;;;;;;;;;17.00;83.80;;;;;;5067137;28;20033;-78
2023/09/28 01:09:50;;;;;;;;;;;17.00;83.80;;;;;;5062815;28;19991;-77
2023/09/28 01:12:18;;;;;;;;;;;17.00;83.90;;;;;;5063689;28;20010;-78
2023/09/28 01:14:45;;;;;;;;;;;16.90;83.90;;;;;;5064918;28;19976;-78
2023/09/28 01:17:10;;;;;;;;;;;16.90;83.80;;;;;;5066716;28;20000;-78
2023/09/28 01:19:38;;;;;;;;;;;16.90;83.90;;;;;;5064474;28;20281;-78
2023/09/28 01:22:10;;;;;;;;;;;16.90;83.80;;;;;;5063413;28;20631;-77
2023/09/28 01:24:38;;;;;;;;;;;16.90;83.90;;;;;;5065131;28;20006;-78
2023/09/28 01:27:06;;;;;;;;;;;16.90;84.00;;;;;;5064208;28;19979;-78
2023/09/28 01:29:32;;;;;;;;;;;16.90;84.00;;;;;;5063670;28;20058;-78
2023/09/28 01:31:58;;;;;;;;;;;16.80;84.10;;;;;;5067007;28;20006;-77
2023/09/28 01:34:24;;;;;;;;;;;16.80;84.20;;;;;;5068261;28;19975;-77
2023/09/28 01:36:50;;;;;;;;;;;16.80;84.30;;;;;;5069023;28;19979;-76
2023/09/28 01:39:18;;;;;;;;;;;16.80;84.40;;;;;;5067259;28;20505;-76
2023/09/28 01:41:43;;;;;;;;;;;16.80;84.40;;;;;;5066560;28;19991;-78
2023/09/28 01:44:11;;;;;;;;;;;16.80;84.40;;;;;;5066074;28;19982;-77
2023/09/28 01:46:36;;;;;;;;;;;16.70;84.40;;;;;;5067376;28;19999;-78
2023/09/28 01:49:03;;;;;;;;;;;16.80;84.40;;;;;;5068647;28;19975;-77
2023/09/28 01:51:28;;;;;;;;;;;16.70;84.40;;;;;;5064838;28;19992;-77
2023/09/28 01:53:55;;;;;;;;;;;16.70;84.40;;;;;;5067993;28;19979;-77
2023/09/28 01:56:22;;;;;;;;;;;16.70;84.50;;;;;;5067228;28;19986;-78
2023/09/28 01:58:49;;;;;;;;;;;16.70;84.50;;;;;;5066416;28;19983;-75
2023/09/28 02:01:20;;;;;;;;;;;16.70;84.40;;;;;;5065257;28;19995;-75
2023/09/28 02:03:47;;;;;;;;;;;16.70;84.50;;;;;;5067650;28;19975;-77
2023/09/28 02:06:13;;;;;;;;;;;16.70;84.70;;;;;;5067382;28;20002;-78
2023/09/28 02:08:40;;;;;;;;;;;16.70;84.70;;;;;;5066817;28;19976;-78
2023/09/28 02:11:06;;;;;;;;;;;16.70;84.80;;;;;;5067398;28;20081;-77
2023/09/28 02:13:34;;;;;;;;;;;16.60;84.80;;;;;;5061740;28;20345;-78
2023/09/28 02:15:59;;;;;;;;;;;16.60;84.70;;;;;;5072479;28;19999;-78
2023/09/28 02:18:26;;;;;;;;;;;16.60;84.70;;;;;;5066559;28;20389;-77
2023/09/28 02:20:52;;;;;;;;;;;16.60;84.80;;;;;;5067509;28;19979;-78
2023/09/28 02:23:19;;;;;;;;;;;16.60;84.80;;;;;;5066612;28;20373;-76
2023/09/28 02:25:45;;;;;;;;;;;16.60;84.90;;;;;;5069019;28;19983;-77
2023/09/28 02:28:11;;;;;;;;;;;16.50;84.90;;;;;;5068637;28;19979;-78
2023/09/28 02:30:38;;;;;;;;;;;16.60;85.10;;;;;;5068336;28;20003;-78
2023/09/28 02:33:06;;;;;;;;;;;16.60;85.20;;;;;;5071734;28;20021;-78
2023/09/28 02:35:32;;;;;;;;;;;16.50;85.20;;;;;;5063287;28;19975;-78
2023/09/28 02:37:58;;;;;;;;;;;16.50;85.20;;;;;;5069554;28;19982;-76
2023/09/28 02:40:24;;;;;;;;;;;16.50;85.30;;;;;;5065512;28;19980;-78
2023/09/28 02:42:51;;;;;;;;;;;16.50;85.30;;;;;;5059285;28;19991;-77
2023/09/28 02:45:17;;;;;;;;;;;16.50;85.30;;;;;;5066432;28;20392;-75
2023/09/28 02:47:46;;;;;;;;;;;16.50;85.30;;;;;;5065920;28;19976;-78
2023/09/28 02:50:13;;;;;;;;;;;16.50;85.40;;;;;;5066310;28;20066;-75
2023/09/28 02:52:40;;;;;;;;;;;16.50;85.60;;;;;;5065950;28;20010;-78
2023/09/28 02:55:07;;;;;;;;;;;16.50;86.30;;;;;;5065266;28;19991;-78
2023/09/28 02:57:34;;;;;;;;;;;16.40;85.60;;;;;;5063578;28;20066;-77
2023/09/28 03:00:00;;;;;;;;;;;16.40;85.70;;;;;;5065778;28;20026;-75
2023/09/28 03:02:26;;;;;;;;;;;16.40;85.60;;;;;;5065369;28;20096;-77
2023/09/28 03:04:53;;;;;;;;;;;16.40;85.60;;;;;;5059877;28;19980;-77
2023/09/28 03:07:20;;;;;;;;;;;16.40;85.70;;;;;;5063651;28;20074;-76
2023/09/28 03:09:47;;;;;;;;;;;16.40;85.70;;;;;;5064241;28;19979;-76
2023/09/28 03:12:12;;;;;;;;;;;16.40;85.70;;;;;;5061571;28;20046;-76
2023/09/28 03:14:39;;;;;;;;;;;16.40;85.70;;;;;;5066333;28;20060;-78
2023/09/28 03:17:04;;;;;;;;;;;16.40;85.80;;;;;;5063781;28;20082;-77
2023/09/28 03:19:33;;;;;;;;;;;16.40;86.00;;;;;;5064523;28;20624;-77
2023/09/28 03:22:00;;;;;;;;;;;16.40;86.00;;;;;;5063970;28;20001;-77
2023/09/28 03:24:26;;;;;;;;;;;16.40;86.10;;;;;;5063956;28;19979;-77
2023/09/28 03:26:52;;;;;;;;;;;16.40;86.10;;;;;;5065160;28;19983;-77
2023/09/28 03:29:18;;;;;;;;;;;16.40;86.10;;;;;;5063790;28;19987;-75
2023/09/28 03:31:44;;;;;;;;;;;16.30;86.10;;;;;;5064739;28;20631;-77
2023/09/28 03:34:11;;;;;;;;;;;16.30;86.20;;;;;;5067080;28;19979;-76
2023/09/28 03:36:37;;;;;;;;;;;16.30;86.30;;;;;;5063245;28;20027;-78
2023/09/28 03:39:05;;;;;;;;;;;16.30;86.30;;;;;;5064961;28;20446;-78
2023/09/28 03:41:32;;;;;;;;;;;16.30;86.40;;;;;;5063576;28;20362;-77
2023/09/28 03:43:58;;;;;;;;;;;16.30;86.40;;;;;;5065671;28;20442;-77
2023/09/28 03:46:25;;;;;;;;;;;16.30;86.40;;;;;;5062371;28;19997;-76
2023/09/28 03:48:51;;;;;;;;;;;16.30;86.40;;;;;;5065753;28;20425;-75
2023/09/28 03:51:18;;;;;;;;;;;16.30;86.40;;;;;;5061498;28;20366;-76
2023/09/28 03:53:44;;;;;;;;;;;16.20;86.40;;;;;;5061131;28;19991;-77
2023/09/28 03:56:12;;;;;;;;;;;16.30;86.60;;;;;;5064768;28;19976;-76
2023/09/28 03:58:39;;;;;;;;;;;16.20;86.50;;;;;;5059037;28;19975;-76
2023/09/28 04:01:07;;;;;;;;;;;16.20;86.60;;;;;;5064663;28;19998;-76
2023/09/28 04:03:34;;;;;;;;;;;16.20;86.70;;;;;;5064567;28;20022;-77
2023/09/28 04:06:01;;;;;;;;;;;16.20;86.70;;;;;;5065154;28;20021;-77
2023/09/28 04:08:27;;;;;;;;;;;16.20;86.70;;;;;;5062554;28;20272;-76
2023/09/28 04:10:55;;;;;;;;;;;16.20;86.80;;;;;;5064629;28;20238;-75
2023/09/28 04:13:22;;;;;;;;;;;16.20;86.80;;;;;;5062413;28;20343;-78
2023/09/28 04:15:49;;;;;;;;;;;16.20;86.80;;;;;;5061803;28;20026;-75
2023/09/28 04:18:16;;;;;;;;;;;16.20;86.90;;;;;;5064799;28;20170;-76
2023/09/28 04:20:42;;;;;;;;;;;16.20;86.90;;;;;;5063413;28;19975;-77
2023/09/28 04:23:09;;;;;;;;;;;16.20;86.90;;;;;;5066612;28;19998;-77
2023/09/28 04:25:36;;;;;;;;;;;16.20;87.00;;;;;;5067242;28;19986;-76
2023/09/28 04:28:03;;;;;;;;;;;16.10;86.90;;;;;;5064606;28;20022;-77
2023/09/28 04:30:31;;;;;;;;;;;16.20;87.00;;;;;;5062501;28;20273;-76
2023/09/28 04:32:57;;;;;;;;;;;16.10;87.00;;;;;;5063149;28;20005;-77
2023/09/28 04:35:24;;;;;;;;;;;16.10;87.00;;;;;;5064376;28;19976;-77
2023/09/28 04:37:50;;;;;;;;;;;16.10;87.70;;;;;;5063308;28;19998;-76
2023/09/28 04:40:21;;;;;;;;;;;16.10;87.10;;;;;;5064284;28;19979;-75
2023/09/28 04:42:48;;;;;;;;;;;16.10;87.10;;;;;;5063209;28;20489;-76
2023/09/28 04:45:14;;;;;;;;;;;16.10;87.10;;;;;;5066539;28;20505;-77
2023/09/28 04:47:42;;;;;;;;;;;16.10;87.20;;;;;;5064149;28;19987;-78
2023/09/28 04:50:09;;;;;;;;;;;16.00;87.20;;;;;;5060530;28;19975;-77
2023/09/28 04:52:36;;;;;;;;;;;16.10;87.30;;;;;;5061133;28;20366;-77
2023/09/28 04:55:03;;;;;;;;;;;16.10;87.30;;;;;;5064591;28;19979;-76
2023/09/28 04:57:31;;;;;;;;;;;16.10;87.40;;;;;;5059947;28;20365;-77
2023/09/28 04:59:57;;;;;;;;;;;16.00;87.30;;;;;;5066315;28;20021;-77
2023/09/28 05:02:24;;;;;;;;;;;16.00;87.30;;;;;;5064675;28;19999;-77
2023/09/28 05:04:52;;;;;;;;;;;16.00;87.40;;;;;;5062607;28;19979;-75
2023/09/28 05:07:18;;;;;;;;;;;16.00;87.30;;;;;;5060131;28;20814;-75
2023/09/28 05:09:47;;;;;;;;;;;16.00;87.30;;;;;;5061026;28;19976;-77
2023/09/28 05:12:13;;;;;;;;;;;16.00;87.40;;;;;;5060811;28;19999;-76
2023/09/28 05:14:41;;;;;;;;;;;15.90;87.40;;;;;;5060839;28;20047;-76
2023/09/28 05:17:07;;;;;;;;;;;16.00;87.40;;;;;;5063797;28;19999;-77
2023/09/28 05:19:34;;;;;;;;;;;15.90;87.30;;;;;;5060414;28;19979;-76
2023/09/28 05:22:02;;;;;;;;;;;15.90;87.50;;;;;;5061062;28;20002;-75
2023/09/28 05:24:29;;;;;;;;;;;15.90;87.50;;;;;;5062549;28;20029;-74
2023/09/28 05:26:56;;;;;;;;;;;15.90;87.50;;;;;;5064246;28;19976;-76
2023/09/28 05:29:23;;;;;;;;;;;15.90;87.50;;;;;;5064350;28;19979;-74
2023/09/28 05:31:49;;;;;;;;;;;15.90;87.50;;;;;;5059620;28;20022;-74
2023/09/28 05:34:16;;;;;;;;;;;15.90;87.50;;;;;;5060888;28;19992;-74
2023/09/28 05:36:43;;;;;;;;;;;15.80;87.50;;;;;;5062566;28;20054;-74
2023/09/28 05:39:11;;;;;;;;;;;15.90;87.60;;;;;;5063233;28;19982;-76
2023/09/28 05:41:37;;;;;;;;;;;15.90;87.50;;;;;;5059701;28;20002;-77
2023/09/28 05:44:04;;;;;;;;;;;15.80;87.40;;;;;;5064196;28;19975;-76
2023/09/28 05:46:31;;;;;;;;;;;15.80;87.50;;;;;;5063360;28;19991;-76
2023/09/28 05:48:57;;;;;;;;;;;15.80;87.40;;;;;;5060358;28;19975;-74
2023/09/28 05:51:24;;;;;;;;;;;15.80;87.40;;;;;;5061595;28;19983;-76
2023/09/28 05:53:51;;;;;;;;;;;15.80;87.40;;;;;;5059439;28;19995;-75
2023/09/28 05:56:19;;;;;;;;;;;15.80;87.40;;;;;;5064535;28;19979;-74
2023/09/28 05:58:46;;;;;;;;;;;15.80;87.50;;;;;;5061949;28;19983;-74
2023/09/28 06:01:13;;;;;;;;;;;15.80;87.50;;;;;;5063095;28;20041;-75
2023/09/28 06:03:40;;;;;;;;;;;15.80;87.60;;;;;;5061688;28;19972;-77
2023/09/28 06:06:14;;;;;;;;;;;15.70;87.40;;;;;;5059947;28;19983;-77
2023/09/28 06:08:41;;;;;;;;;;;15.70;87.50;;;;;;5062685;28;19981;-77
2023/09/28 06:11:11;;;;;;;;;;;15.70;87.50;;;;;;5062657;28;19987;-77
2023/09/28 06:13:38;;;;;;;;;;;15.70;87.50;;;;;;5062364;28;19992;-74
2023/09/28 06:16:05;;;;;;;;;;;15.70;87.60;;;;;;5057436;28;19995;-77
2023/09/28 06:18:32;;;;;;;;;;;15.70;87.60;;;;;;5066572;28;19975;-77
2023/09/28 06:20:58;;;;;;;;;;;15.70;87.60;;;;;;5065466;28;20358;-73
2023/09/28 06:23:25;;;;;;;;;;;15.70;87.60;;;;;;5064585;28;20548;-77
2023/09/28 06:25:52;;;;;;;;;;;15.70;87.80;;;;;;5067294;28;20473;-77
2023/09/28 06:28:18;;;;;;;;;;;15.70;87.70;;;;;;5065484;28;19982;-73
2023/09/28 06:30:47;;;;;;;;;;;15.70;87.70;;;;;;5063922;28;20000;-75
2023/09/28 06:33:13;;;;;;;;;;;15.70;87.80;;;;;;5065486;28;20638;-76
2023/09/28 06:35:40;;;;;;;;;;;15.60;87.80;;;;;;5066970;28;19976;-76
2023/09/28 06:38:07;;;;;;;;;;;15.60;87.80;;;;;;5069450;28;19976;-75
2023/09/28 06:40:33;;;;;;;;;;;15.60;87.90;;;;;;5063280;28;19991;-73
2023/09/28 06:43:00;;;;;;;;;;;15.60;87.90;;;;;;5066719;28;19991;-74
2023/09/28 06:45:26;;;;;;;;;;;15.60;87.90;;;;;;5066041;28;19995;-75
2023/09/28 06:47:54;;;;;;;;;;;15.60;88.00;;;;;;5066296;28;20073;-77
2023/09/28 06:50:21;;;;;;;;;;;15.60;88.00;;;;;;5066209;28;20018;-76
2023/09/28 06:52:48;;;;;;;;;;;15.60;88.00;;;;;;5063491;28;19996;-75
2023/09/28 06:55:14;;;;;;;;;;;15.60;88.00;;;;;;5065290;28;20433;-76
2023/09/28 06:57:41;;;;;;;;;;;15.60;88.00;;;;;;5066685;28;19983;-77
2023/09/28 07:00:09;;;;;;;;;;;15.50;87.90;;;;;;5065166;28;19976;-76
2023/09/28 07:02:36;;;;;;;;;;;15.50;87.90;;;;;;5068710;28;20373;-75
2023/09/28 07:05:04;;;;;;;;;;;15.50;87.90;;;;;;5065906;28;19975;-76
2023/09/28 07:07:31;;;;;;;;;;;15.50;88.00;;;;;;5064625;28;19972;-74
2023/09/28 07:09:57;;;;;;;;;;;15.50;88.00;;;;;;5067811;28;19986;-74
2023/09/28 07:12:24;;;;;;;;;;;15.50;88.10;;;;;;5066228;28;19991;-77
2023/09/28 07:14:50;;;;;;;;;;;15.50;88.20;;;;;;5065594;28;20003;-74
2023/09/28 07:17:17;;;;;;;;;;;15.50;88.30;;;;;;5065392;28;20487;-74
2023/09/28 07:19:44;;;;;;;;;;;15.50;88.30;;;;;;5066179;28;20446;-76
2023/09/28 07:22:13;;;;;;;;;;;15.50;88.30;;;;;;5064108;28;19995;-75
2023/09/28 07:24:39;;;;;;;;;;;15.50;88.30;;;;;;5063715;28;19980;-76
2023/09/28 07:27:06;;;;;;;;;;;15.50;88.30;;;;;;5063914;28;19979;-76
2023/09/28 07:29:33;;;;;;;;;;;15.50;88.40;;;;;;5066445;28;19975;-75
2023/09/28 07:31:59;;;;;;;;;;;15.50;88.40;;;;;;5063858;28;20003;-75
2023/09/28 07:34:26;;;;;;;;;;;15.50;88.40;;;;;;5064706;28;19995;-77
2023/09/28 07:36:53;;;;;;;;;;;15.50;88.60;;;;;;5062354;28;19984;-77
2023/09/28 07:39:21;;;;;;;;;;;15.50;88.60;;;;;;5064182;28;19994;-73
2023/09/28 07:41:47;;;;;;;;;;;15.50;88.70;;;;;;5067838;28;19991;-73
2023/09/28 07:44:14;;;;;;;;;;;15.50;88.80;;;;;;5063365;28;20346;-75
2023/09/28 07:46:41;;;;;;;;;;;15.50;88.90;;;;;;5063745;28;19994;-76
2023/09/28 07:49:07;;;;;;;;;;;15.50;88.90;;;;;;5065480;28;19983;-76
2023/09/28 07:51:34;;;;;;;;;;;15.50;88.90;;;;;;5063884;28;19995;-76
2023/09/28 07:54:01;;;;;;;;;;;15.50;88.90;;;;;;5062698;28;20002;-74
2023/09/28 07:56:29;;;;;;;;;;;15.50;88.90;;;;;;5065018;28;20053;-75
2023/09/28 07:58:56;;;;;;;;;;;15.50;88.90;;;;;;5061022;28;19986;-76
2023/09/28 08:01:23;;;;;;;;;;;15.50;88.90;;;;;;5062159;28;20045;-76
2023/09/28 08:03:50;;;;;;;;;;;15.50;88.80;;;;;;5062211;28;19987;-74
2023/09/28 08:06:17;;;;;;;;;;;15.50;88.80;;;;;;5066091;28;20071;-74
2023/09/28 08:08:43;;;;;;;;;;;15.50;88.70;;;;;;5062594;28;19976;-74
2023/09/28 08:11:10;;;;;;;;;;;15.60;88.80;;;;;;5065224;28;20417;-75
2023/09/28 08:13:38;;;;;;;;;;;15.60;88.80;;;;;;5062460;28;20597;-77
2023/09/28 08:16:04;;;;;;;;;;;15.60;88.70;;;;;;5065491;28;20455;-76
2023/09/28 08:18:31;;;;;;;;;;;15.60;88.70;;;;;;5064892;28;19983;-74
2023/09/28 08:20:57;;;;;;;;;;;15.60;89.00;;;;;;5064273;28;19983;-73
2023/09/28 08:23:24;;;;;;;;;;;15.70;89.10;;;;;;5061062;28;20382;-76
2023/09/28 08:25:51;;;;;;;;;;;15.80;89.20;;;;;;5066672;28;20502;-75
2023/09/28 08:28:17;;;;;;;;;;;15.80;89.00;;;;;;5061436;28;19976;-75
2023/09/28 08:30:45;;;;;;;;;;;15.80;88.80;;;;;;5061191;28;19991;-76
2023/09/28 08:33:12;;;;;;;;;;;15.80;88.50;;;;;;5064926;28;19999;-73
2023/09/28 08:35:38;;;;;;;;;;;15.90;88.50;;;;;;5064619;28;20397;-74
2023/09/28 08:38:05;;;;;;;;;;;15.90;88.30;;;;;;5063755;28;19986;-75
2023/09/28 08:40:33;;;;;;;;;;;16.00;88.40;;;;;;5061422;28;20429;-75
2023/09/28 08:43:03;;;;;;;;;;;16.00;88.30;;;;;;5063152;28;19999;-74
2023/09/28 08:45:31;;;;;;;;;;;16.10;88.10;;;;;;5062614;28;19982;-74
2023/09/28 08:48:00;;;;;;;;;;;16.10;87.80;;;;;;5064775;28;19983;-74
2023/09/28 08:50:29;;;;;;;;;;;16.10;87.60;;;;;;5062760;28;19975;-73
2023/09/28 08:52:56;;;;;;;;;;;16.20;87.40;;;;;;5064874;28;20003;-76
2023/09/28 08:55:22;;;;;;;;;;;16.20;87.30;;;;;;5063949;28;19991;-75
2023/09/28 08:57:50;;;;;;;;;;;16.20;87.20;;;;;;5063803;28;20534;-73
2023/09/28 09:00:22;;;;;;;;;;;16.20;87.10;;;;;;5061276;28;19986;-74
2023/09/28 09:02:50;;;;;;;;;;;16.30;87.10;;;;;;5063569;28;20007;-74
2023/09/28 09:05:18;;;;;;;;;;;16.30;86.90;;;;;;5062572;28;19986;-74
2023/09/28 09:07:44;;;;;;;;;;;16.40;87.60;;;;;;5061614;28;19976;-75
2023/09/28 09:10:12;;;;;;;;;;;16.40;87.20;;;;;;5063833;28;19982;-76
2023/09/28 09:12:39;;;;;;;;;;;16.50;86.80;;;;;;5062910;28;20003;-77
2023/09/28 09:15:06;;;;;;;;;;;16.60;86.70;;;;;;5061116;28;19995;-76
2023/09/28 09:17:33;;;;;;;;;;;16.60;86.60;;;;;;5063042;28;19979;-74
2023/09/28 09:20:00;;;;;;;;;;;16.70;86.50;;;;;;5062218;28;19983;-74
2023/09/28 09:22:28;;;;;;;;;;;16.70;86.30;;;;;;5064855;28;20500;-75
2023/09/28 09:24:55;;;;;;;;;;;16.80;86.20;;;;;;5060277;28;20002;-76
2023/09/28 09:27:25;;;;;;;;;;;16.80;86.00;;;;;;5061465;28;19999;-76
2023/09/28 09:29:52;;;;;;;;;;;16.90;85.70;;;;;;5062813;28;19979;-76
2023/09/28 09:32:21;;;;;;;;;;;16.90;85.40;;;;;;5059731;28;20421;-74
2023/09/28 09:34:48;;;;;;;;;;;17.00;84.90;;;;;;5063853;28;19995;-75
2023/09/28 09:37:15;;;;;;;;;;;17.10;84.80;;;;;;5062714;28;20438;-76
2023/09/28 09:39:43;;;;;;;;;;;17.20;84.80;;;;;;5061230;28;19976;-77
2023/09/28 09:42:10;;;;;;;;;;;17.20;84.20;;;;;;5061655;28;19999;-77
2023/09/28 09:44:36;;;;;;;;;;;17.30;84.10;;;;;;5060729;28;19980;-77
2023/09/28 09:47:03;;;;;;;;;;;17.40;84.00;;;;;;5061814;28;19995;-75
2023/09/28 09:49:29;;;;;;;;;;;17.40;83.80;;;;;;5062130;28;19982;-75
2023/09/28 09:51:58;;;;;;;;;;;17.50;83.70;;;;;;5062796;28;20012;-76
2023/09/28 09:54:24;;;;;;;;;;;17.60;83.50;;;;;;5066508;28;19998;-77
2023/09/28 09:56:53;;;;;;;;;;;17.60;83.30;;;;;;5067677;28;19979;-77
2023/09/28 09:59:21;;;;;;;;;;;17.70;83.20;;;;;;5064645;28;19987;-74
2023/09/28 10:01:48;;;;;;;;;;;17.80;82.80;;;;;;5063620;28;19995;-77
2023/09/28 10:04:16;;;;;;;;;;;17.80;82.40;;;;;;5066877;28;19980;-73
2023/09/28 10:06:47;;;;;;;;;;;17.90;82.20;;;;;;5065459;28;19982;-75
2023/09/28 10:09:15;;;;;;;;;;;18.00;82.10;;;;;;5066093;28;20351;-77
2023/09/28 10:11:41;;;;;;;;;;;18.10;82.10;;;;;;5067199;28;20536;-77
2023/09/28 10:14:10;;;;;;;;;;;18.10;81.90;;;;;;5088068;22;19998;-69
2023/09/28 10:16:37;;;;;;;;;;;18.20;81.60;;;;;;5056813;28;19995;-69
2023/09/28 10:19:05;;;;;;;;;;;18.20;81.50;;;;;;5062247;28;19979;-68
2023/09/28 10:21:33;;;;;;;;;;;18.30;81.40;;;;;;5063752;28;19982;-68
2023/09/28 10:24:07;;;;;;;;;;;18.30;81.30;;;;;;5062473;28;19999;-68
2023/09/28 10:26:35;;;;;;;;;;;18.50;80.90;;;;;;5066372;28;19983;-69
2023/09/28 10:29:02;;;;;;;;;;;18.50;80.80;;;;;;5063857;28;20460;-68
2023/09/28 10:31:30;;;;;;;;;;;18.60;80.50;;;;;;5066543;28;19996;-68
2023/09/28 10:33:57;;;;;;;;;;;18.60;80.20;;;;;;5067365;28;19999;-69
2023/09/28 10:36:23;;;;;;;;;;;18.70;79.30;;;;;;5065921;28;19991;-69
2023/09/28 10:39:06;;;;;;;;;;;18.80;79.70;;;;;;5065686;28;19979;-69
2023/09/28 10:41:32;;;;;;;;;;;18.80;79.60;;;;;;5064818;28;20049;-69
2023/09/28 10:43:59;;;;;;;;;;;18.90;79.40;;;;;;5063718;28;19991;-68
2023/09/28 10:46:29;;;;;;;;;;;19.00;78.70;;;;;;5065689;28;20005;-69
2023/09/28 10:48:59;;;;;;;;;;;19.00;78.00;;;;;;5066068;28;19987;-69
2023/09/28 10:51:25;;;;;;;;;;;19.10;78.60;;;;;;5063809;28;19975;-69
2023/09/28 10:53:52;;;;;;;;;;;19.20;78.40;;;;;;5066705;28;20587;-68
2023/09/28 10:56:18;;;;;;;;;;;19.20;78.30;;;;;;5065224;28;19991;-68
2023/09/28 10:58:46;;;;;;;;;;;19.30;77.70;;;;;;5064025;28;19982;-68
2023/09/28 11:01:12;;;;;;;;;;;19.30;77.90;;;;;;5064803;28;20002;-69
2023/09/28 11:03:39;;;;;;;;;;;19.40;77.90;;;;;;5065471;28;19998;-68
2023/09/28 11:06:09;;;;;;;;;;;19.50;77.70;;;;;;5066205;28;20032;-69
2023/09/28 11:08:36;;;;;;;;;;;19.50;77.60;;;;;;5062837;28;20492;-68
2023/09/28 11:11:03;;;;;;;;;;;19.60;77.40;;;;;;5065782;28;19979;-69
2023/09/28 11:13:29;;;;;;;;;;;19.70;77.30;;;;;;5063980;28;19997;-69
2023/09/28 11:15:56;;;;;;;;;;;19.80;77.30;;;;;;5064894;28;20521;-69
2023/09/28 11:18:24;;;;;;;;;;;19.80;76.90;;;;;;5066091;28;19980;-69
2023/09/28 11:20:50;;;;;;;;;;;19.90;76.30;;;;;;5064387;28;19980;-69
2023/09/28 11:23:19;;;;;;;;;;;20.00;76.70;;;;;;5065273;28;21001;-69
2023/09/28 11:25:46;;;;;;;;;;;20.00;76.10;;;;;;5064821;28;19975;-69
2023/09/28 11:28:13;;;;;;;;;;;20.10;76.10;;;;;;5064187;28;20070;-69
2023/09/28 11:30:40;;;;;;;;;;;20.20;75.60;;;;;;5065146;28;20530;-70
2023/09/28 11:33:07;;;;;;;;;;;20.20;75.90;;;;;;5066330;28;19987;-68
2023/09/28 11:35:35;;;;;;;;;;;20.30;75.60;;;;;;5064224;28;19991;-70
2023/09/28 11:38:02;;;;;;;;;;;20.40;75.50;;;;;;5064508;28;19983;-68
2023/09/28 11:40:31;;;;;;;;;;;20.50;75.30;;;;;;5064331;28;19986;-69
2023/09/28 11:42:58;;;;;;;;;;;20.60;75.10;;;;;;5062459;28;19979;-69
2023/09/28 11:45:28;;;;;;;;;;;20.60;74.90;;;;;;5061545;28;19999;-69
2023/09/28 11:47:54;;;;;;;;;;;20.70;74.70;;;;;;5065368;28;19979;-68
2023/09/28 11:50:22;;;;;;;;;;;20.70;74.40;;;;;;5063585;28;19983;-69
2023/09/28 11:52:49;;;;;;;;;;;20.80;73.90;;;;;;5064020;28;19983;-68
2023/09/28 11:55:16;;;;;;;;;;;20.80;73.30;;;;;;5064217;28;20003;-69
2023/09/28 11:57:44;;;;;;;;;;;20.90;73.00;;;;;;5062549;28;20447;-69
2023/09/28 12:00:18;;;;;;;;;;;21.00;73.30;;;;;;5064613;28;20378;-69
2023/09/28 12:02:44;;;;;;;;;;;21.00;72.50;;;;;;5065330;28;19971;-69
2023/09/28 12:05:11;;;;;;;;;;;21.10;72.90;;;;;;5062333;28;20042;-69
2023/09/28 12:07:38;;;;;;;;;;;21.20;72.30;;;;;;5064631;28;19976;-69
2023/09/28 12:10:05;;;;;;;;;;;21.20;71.50;;;;;;5063689;28;19979;-69
2023/09/28 12:12:31;;;;;;;;;;;21.30;72.20;;;;;;5063208;28;19983;-70
2023/09/28 12:14:59;;;;;;;;;;;21.40;71.30;;;;;;5063549;28;19999;-68
2023/09/28 12:17:26;;;;;;;;;;;21.40;70.60;;;;;;5061183;28;20508;-70
2023/09/28 12:19:52;;;;;;;;;;;21.40;71.00;;;;;;5063557;28;20023;-69
2023/09/28 12:22:19;;;;;;;;;;;21.50;71.70;;;;;;5063317;28;19975;-69
2023/09/28 12:24:46;;;;;;;;;;;21.50;71.10;;;;;;5064202;28;20082;-69
2023/09/28 12:27:13;;;;;;;;;;;21.60;70.80;;;;;;5063211;28;19980;-69
2023/09/28 12:29:39;;;;;;;;;;;21.70;71.30;;;;;;5064720;28;20029;-69
2023/09/28 12:32:08;;;;;;;;;;;21.70;71.00;;;;;;5063190;28;19995;-69
2023/09/28 12:34:34;;;;;;;;;;;21.70;70.70;;;;;;5064129;28;19991;-69
2023/09/28 12:37:01;;;;;;;;;;;21.80;70.60;;;;;;5060793;28;20002;-69
2023/09/28 12:39:27;;;;;;;;;;;21.80;71.00;;;;;;5064105;28;19982;-69
2023/09/28 12:41:58;;;;;;;;;;;21.90;71.00;;;;;;5063948;28;19979;-68
2023/09/28 12:44:25;;;;;;;;;;;21.90;70.60;;;;;;5064566;28;19991;-69
2023/09/28 12:46:52;;;;;;;;;;;22.00;70.40;;;;;;5063331;28;20042;-69
2023/09/28 12:49:20;;;;;;;;;;;22.00;70.40;;;;;;5063670;28;19979;-69
2023/09/28 12:51:47;;;;;;;;;;;22.00;70.80;;;;;;5063192;28;19980;-68
2023/09/28 12:54:15;;;;;;;;;;;22.00;70.60;;;;;;5063597;28;19995;-69
2023/09/28 12:56:41;;;;;;;;;;;22.10;70.70;;;;;;5063496;28;20003;-69
2023/09/28 12:59:08;;;;;;;;;;;22.10;69.40;;;;;;5062332;28;19990;-69
2023/09/28 13:01:34;;;;;;;;;;;22.20;70.10;;;;;;5062626;28;19991;-69
2023/09/28 13:04:04;;;;;;;;;;;22.20;69.90;;;;;;5063917;28;19999;-68
2023/09/28 13:06:33;;;;;;;;;;;22.30;70.40;;;;;;5059721;28;19979;-69
2023/09/28 13:09:00;;;;;;;;;;;22.30;70.30;;;;;;5060631;28;20034;-68
2023/09/28 13:11:27;;;;;;;;;;;22.40;70.20;;;;;;5063231;28;20007;-69
2023/09/28 13:13:54;;;;;;;;;;;22.40;70.00;;;;;;5065172;28;20005;-69
2023/09/28 13:16:23;;;;;;;;;;;22.40;69.80;;;;;;5062122;28;20082;-68
2023/09/28 13:18:50;;;;;;;;;;;22.50;69.40;;;;;;5066434;28;20079;-69
2023/09/28 13:21:16;;;;;;;;;;;22.50;69.30;;;;;;5060861;28;20045;-69
2023/09/28 13:23:45;;;;;;;;;;;22.50;69.40;;;;;;5063695;28;19995;-69
2023/09/28 13:26:13;;;;;;;;;;;22.60;69.70;;;;;;5064899;28;19983;-69
2023/09/28 13:28:40;;;;;;;;;;;22.60;69.60;;;;;;5066690;28;19983;-69
2023/09/28 13:31:07;;;;;;;;;;;22.60;68.80;;;;;;5068081;28;20398;-69
2023/09/28 13:33:36;;;;;;;;;;;22.60;69.20;;;;;;5069174;28;20555;-69
2023/09/28 13:36:05;;;;;;;;;;;22.70;69.40;;;;;;5068223;28;19995;-69
2023/09/28 13:38:31;;;;;;;;;;;22.70;70.00;;;;;;5062440;28;20011;-70
2023/09/28 13:40:59;;;;;;;;;;;22.70;67.70;;;;;;5066146;28;19979;-67
2023/09/28 13:43:26;;;;;;;;;;;22.80;68.70;;;;;;5066829;28;19982;-69
2023/09/28 13:45:53;;;;;;;;;;;22.80;69.00;;;;;;5068162;28;20039;-69
2023/09/28 13:48:21;;;;;;;;;;;22.80;69.20;;;;;;5070284;28;19991;-68
2023/09/28 13:50:48;;;;;;;;;;;22.90;69.90;;;;;;5070027;28;19987;-69
2023/09/28 13:53:15;;;;;;;;;;;22.90;68.90;;;;;;5064717;28;20528;-69
2023/09/28 13:55:41;;;;;;;;;;;22.90;68.70;;;;;;5068114;28;19995;-69
2023/09/28 13:58:12;;;;;;;;;;;23.00;68.70;;;;;;5060726;28;19998;-69
2023/09/28 14:00:42;;;;;;;;;;;23.00;68.80;;;;;;5067107;28;20440;-69
2023/09/28 14:03:08;;;;;;;;;;;23.10;67.80;;;;;;5068092;28;19990;-69
2023/09/28 14:05:35;;;;;;;;;;;23.10;68.70;;;;;;5067251;28;20118;-69
2023/09/28 14:08:02;;;;;;;;;;;23.10;68.70;;;;;;5066614;28;20043;-70
2023/09/28 14:10:29;;;;;;;;;;;23.20;68.70;;;;;;5067015;28;19975;-69
2023/09/28 14:12:56;;;;;;;;;;;23.20;68.50;;;;;;5065990;28;19979;-69
2023/09/28 14:15:24;;;;;;;;;;;23.20;68.20;;;;;;5067775;28;20082;-68